Time;durP1;ratioP1;P1;durP2;ratioP2;P2;SDS_P1;SDS_P2;PMS_P1;PMS_P2;Temp;Humidity;BMP_temperature;BMP_pressure;BME280_temperature;BME280_humidity;BME280_pressure;Samples;Min_cycle;Max_cycle;Signal;HPM_P1;HPM_P2
2022/12/02 00:02:00;;;;;;;3.08;2.55;;;18.30;40.50;;;;;;6275698;28;20186;-63
2022/12/02 00:05:10;;;;;;;3.38;2.67;;;18.70;40.90;;;;;;6291501;27;21241;-62
2022/12/02 00:08:18;;;;;;;3.58;2.72;;;18.70;40.70;;;;;;6293059;27;20040;-63
2022/12/02 00:11:26;;;;;;;3.33;2.63;;;18.10;40.40;;;;;;6290891;27;20154;-60
2022/12/02 00:14:29;;;;;;;2.55;2.35;;;18.50;40.70;;;;;;6294642;27;20209;-62
2022/12/02 00:17:31;;;;;;;3.95;2.67;;;18.40;40.50;;;;;;6291032;27;20072;-62
2022/12/02 00:20:32;;;;;;;3.00;2.50;;;18.50;40.60;;;;;;6290279;27;20670;-61
2022/12/02 00:23:34;;;;;;;3.45;2.60;;;18.60;40.70;;;;;;6289034;27;20108;-62
2022/12/02 00:26:36;;;;;;;2.78;2.22;;;18.80;40.90;;;;;;6292842;27;20044;-62
2022/12/02 00:29:37;;;;;;;3.30;2.78;;;18.60;40.80;;;;;;6295837;27;20051;-62
2022/12/02 00:32:39;;;;;;;3.13;2.65;;;18.50;40.70;;;;;;6286711;27;20051;-61
2022/12/02 00:35:41;;;;;;;;;;;18.70;40.50;;;;;;6293305;27;20124;-62
2022/12/02 00:38:43;;;;;;;2.63;2.38;;;18.20;40.00;;;;;;6294062;28;19947;-62
2022/12/02 00:41:45;;;;;;;3.45;2.80;;;18.40;40.70;;;;;;6294764;28;20144;-61
2022/12/02 00:48:03;;;;;;;3.10;2.60;;;18.50;40.70;;;;;;6294458;28;20035;-63
2022/12/02 00:51:06;;;;;;;3.35;2.83;;;18.60;40.60;;;;;;6274491;28;20043;-60
2022/12/02 00:54:08;;;;;;;3.45;3.03;;;18.60;40.90;;;;;;6292427;28;20078;-62
2022/12/02 00:57:10;;;;;;;3.47;2.85;;;18.50;51.10;;;;;;6290517;28;20146;-63
2022/12/02 01:00:13;;;;;;;3.42;2.83;;;18.50;40.50;;;;;;6294503;28;20042;-62
2022/12/02 01:03:15;;;;;;;3.38;2.85;;;18.20;40.50;;;;;;6294643;28;20031;-63
2022/12/02 01:06:16;;;;;;;3.75;2.90;;;18.70;40.60;;;;;;6292657;28;20115;-62
2022/12/02 01:09:18;;;;;;;;;;;18.30;40.60;;;;;;6298386;28;20157;-63
2022/12/02 01:12:20;;;;;;;3.15;2.42;;;18.20;41.00;;;;;;6292697;28;21292;-62
2022/12/02 01:15:23;;;;;;;3.72;3.00;;;18.40;41.00;;;;;;6276311;28;20035;-62
2022/12/02 01:18:24;;;;;;;3.40;3.10;;;18.50;40.70;;;;;;6294253;28;20185;-61
2022/12/02 01:21:26;;;;;;;3.20;2.90;;;18.20;40.60;;;;;;6293073;28;20042;-63
2022/12/02 01:24:27;;;;;;;3.60;2.67;;;18.50;40.40;;;;;;6295960;28;20104;-63
2022/12/02 01:27:29;;;;;;;2.92;2.63;;;18.50;40.40;;;;;;6296938;28;20150;-62
2022/12/02 01:30:31;;;;;;;3.80;2.90;;;18.60;40.60;;;;;;6295110;28;20090;-62
2022/12/02 01:33:32;;;;;;;3.22;2.70;;;18.70;40.50;;;;;;6296127;28;20043;-63
2022/12/02 01:36:34;;;;;;;;;;;18.20;40.00;;;;;;6298725;28;20916;-62
2022/12/02 01:39:36;;;;;;;3.65;3.15;;;18.50;40.50;;;;;;6298698;28;19959;-62
2022/12/02 01:42:38;;;;;;;4.05;3.05;;;18.40;40.40;;;;;;6295423;28;20051;-62
2022/12/02 01:45:40;;;;;;;3.53;2.80;;;18.40;40.20;;;;;;6279457;28;20047;-62
2022/12/02 01:48:42;;;;;;;3.30;2.67;;;18.10;40.30;;;;;;6294413;28;20081;-62
2022/12/02 01:51:44;;;;;;;3.05;2.75;;;18.80;40.60;;;;;;6284878;27;20042;-62
2022/12/02 01:54:45;;;;;;;;;;;18.30;40.40;;;;;;6295843;27;20120;-63
2022/12/02 01:57:48;;;;;;;3.63;2.92;;;18.20;40.70;;;;;;6295203;27;19927;-61
2022/12/02 02:00:49;;;;;;;3.65;2.55;;;18.40;40.40;;;;;;6291595;28;20046;-62
2022/12/02 02:03:50;;;;;;;2.97;2.67;;;18.30;41.10;;;;;;6295352;27;21052;-62
2022/12/02 02:06:52;;;;;;;3.17;2.25;;;18.40;40.50;;;;;;6296392;27;20046;-61
2022/12/02 02:09:54;;;;;;;3.42;2.67;;;18.50;40.70;;;;;;6296349;28;21062;-63
2022/12/02 02:12:57;;;;;;;2.78;2.28;;;18.60;40.40;;;;;;6296883;28;20037;-60
2022/12/02 02:15:59;;;;;;;3.42;2.40;;;18.60;40.40;;;;;;6263006;28;20934;-63
2022/12/02 02:19:01;;;;;;;2.35;2.13;;;18.30;40.40;;;;;;6296880;28;20051;-63
2022/12/02 02:22:06;;;;;;;3.10;2.80;;;18.60;40.60;;;;;;6296592;28;20042;-62
2022/12/02 02:25:11;;;;;;;2.90;2.55;;;18.40;40.30;;;;;;6271193;28;20905;-62
2022/12/02 02:28:18;;;;;;;2.40;2.20;;;18.60;40.30;;;;;;6279242;28;20043;-62
2022/12/02 02:31:20;;;;;;;3.60;3.00;;;18.50;40.40;;;;;;6300181;28;20174;-63
2022/12/02 02:34:22;;;;;;;3.08;2.70;;;18.40;40.40;;;;;;6298157;28;20044;-62
2022/12/02 02:37:24;;;;;;;3.42;2.28;;;18.70;40.40;;;;;;6299882;28;21159;-62
2022/12/02 02:40:29;;;;;;;2.85;2.55;;;18.90;40.60;;;;;;6299199;28;20039;-62
2022/12/02 02:43:33;;;;;;;3.13;2.67;;;18.00;39.90;;;;;;6277290;28;20039;-63
2022/12/02 02:46:35;;;;;;;2.92;2.63;;;18.30;39.90;;;;;;6295085;28;20057;-63
2022/12/02 02:49:36;;;;;;;;;;;18.40;39.90;;;;;;6295819;28;21022;-63
2022/12/02 02:52:38;;;;;;;2.90;2.28;;;18.00;40.10;;;;;;6298057;27;21026;-62
2022/12/02 02:55:41;;;;;;;;;;;18.50;40.10;;;;;;6300076;28;20059;-62
2022/12/02 02:58:42;;;;;;;3.05;2.35;;;18.10;40.10;;;;;;6297532;27;19963;-64
2022/12/02 03:01:45;;;;;;;;;;;18.40;40.30;;;;;;6297258;28;20147;-64
2022/12/02 03:04:47;;;;;;;3.45;2.88;;;18.50;40.60;;;;;;6294886;28;19927;-62
2022/12/02 03:07:50;;;;;;;3.40;2.53;;;18.30;40.10;;;;;;6297056;28;20047;-63
2022/12/02 03:10:56;;;;;;;3.58;2.55;;;18.50;40.30;;;;;;6294834;28;20047;-63
2022/12/02 03:13:59;;;;;;;3.00;2.50;;;18.40;40.10;;;;;;6293873;28;20039;-62
2022/12/02 03:17:02;;;;;;;2.83;2.50;;;18.50;40.20;;;;;;6289323;28;20152;-60
2022/12/02 03:20:05;;;;;;;2.50;2.28;;;18.50;40.10;;;;;;6279935;28;20188;-62
2022/12/02 03:23:07;;;;;;;2.40;2.15;;;18.30;40.00;;;;;;6269597;28;20031;-63
2022/12/02 03:26:09;;;;;;;;;;;18.50;40.00;;;;;;6297332;28;20071;-62
2022/12/02 03:29:12;;;;;;;3.10;2.50;;;18.00;40.00;;;;;;6296812;28;20042;-63
2022/12/02 03:32:14;;;;;;;2.92;2.63;;;18.40;40.00;;;;;;6294875;28;20823;-63
2022/12/02 03:35:16;;;;;;;3.28;2.53;;;18.50;39.80;;;;;;6296324;28;21442;-62
2022/12/02 03:38:17;;;;;;;;;;;18.10;39.60;;;;;;6295341;28;20154;-63
2022/12/02 03:41:20;;;;;;;2.40;2.10;;;19.00;40.60;;;;;;6296356;28;20850;-63
2022/12/02 03:44:21;;;;;;;2.92;2.60;;;18.50;40.10;;;;;;6295190;27;20043;-63
2022/12/02 03:47:23;;;;;;;2.60;2.25;;;18.10;39.90;;;;;;6295997;28;20127;-63
2022/12/02 03:50:25;;;;;;;2.88;2.08;;;18.00;39.70;;;;;;6294799;28;20042;-63
2022/12/02 03:53:27;;;;;;;;;;;18.30;39.80;;;;;;6294267;28;20051;-63
2022/12/02 03:56:34;;;;;;;2.83;2.33;;;18.40;40.20;;;;;;6294688;28;19927;-63
2022/12/02 03:59:35;;;;;;;3.17;2.88;;;18.50;39.90;;;;;;6294155;28;20023;-62
2022/12/02 04:02:37;;;;;;;3.00;2.45;;;18.50;40.00;;;;;;6290228;28;20044;-62
2022/12/02 04:05:38;;;;;;;2.40;2.20;;;18.40;39.80;;;;;;6293905;28;20043;-62
2022/12/02 04:08:40;;;;;;;2.92;2.58;;;17.80;39.50;;;;;;6294607;28;20051;-63
2022/12/02 04:11:42;;;;;;;;;;;18.30;39.90;;;;;;6293869;27;20252;-62
2022/12/02 04:14:43;;;;;;;2.38;1.98;;;18.30;40.00;;;;;;6292754;27;19919;-62
2022/12/02 04:17:45;;;;;;;3.67;2.70;;;18.00;39.60;;;;;;6288944;28;20053;-62
2022/12/02 04:20:46;;;;;;;;;;;18.30;39.70;;;;;;6285892;28;20040;-61
2022/12/02 04:23:48;;;;;;;2.88;2.50;;;18.50;40.30;;;;;;6289341;28;19931;-62
2022/12/02 04:26:51;;;;;;;2.58;2.33;;;18.40;39.60;;;;;;6290485;27;20043;-61
2022/12/02 04:29:53;;;;;;;2.80;2.42;;;18.40;38.30;;;;;;6292713;28;20053;-62
2022/12/02 04:32:54;;;;;;;2.75;2.35;;;18.30;39.40;;;;;;6274137;28;20107;-61
2022/12/02 04:35:56;;;;;;;2.80;2.47;;;18.30;39.70;;;;;;6281987;28;20046;-60
2022/12/02 04:38:57;;;;;;;;;;;18.40;39.50;;;;;;6276582;28;20129;-60
2022/12/02 04:41:59;;;;;;;2.85;2.28;;;18.60;40.00;;;;;;6293026;28;19930;-61
2022/12/02 04:45:01;;;;;;;2.67;2.35;;;18.10;54.90;;;;;;6295055;28;20919;-60
2022/12/02 04:48:03;;;;;;;;;;;18.70;39.90;;;;;;6297940;28;20036;-60
2022/12/02 04:51:04;;;;;;;2.35;2.05;;;18.30;55.20;;;;;;6292234;28;20482;-61
2022/12/02 04:54:06;;;;;;;2.60;2.20;;;18.00;55.10;;;;;;6290434;28;20069;-60
2022/12/02 04:57:08;;;;;;;;;;;18.20;39.50;;;;;;6287960;28;20064;-58
2022/12/02 05:00:11;;;;;;;3.08;2.65;;;17.70;39.90;;;;;;6283143;28;19987;-60
2022/12/02 05:03:12;;;;;;;2.60;2.40;;;18.00;39.80;;;;;;6272032;28;20039;-61
2022/12/02 05:06:14;;;;;;;2.88;2.15;;;18.40;40.00;;;;;;6294323;28;20099;-61
2022/12/02 05:09:15;;;;;;;2.92;2.17;;;18.60;39.30;;;;;;6293963;28;20058;-59
2022/12/02 05:12:17;;;;;;;3.08;2.38;;;17.90;39.70;;;;;;6285737;28;21117;-60
2022/12/02 05:15:19;;;;;;;2.63;2.28;;;18.40;40.00;;;;;;6283400;28;20598;-61
2022/12/02 05:18:20;;;;;;;2.42;2.22;;;18.30;40.00;;;;;;6285825;28;20043;-59
2022/12/02 05:21:22;;;;;;;3.55;2.80;;;18.30;40.00;;;;;;6284165;28;20047;-61
2022/12/02 05:24:23;;;;;;;2.97;2.33;;;18.10;39.90;;;;;;6290470;28;20427;-60
2022/12/02 05:27:25;;;;;;;2.97;2.22;;;18.20;39.80;;;;;;6287593;28;20047;-61
2022/12/02 05:30:32;;;;;;;2.67;2.20;;;18.10;40.10;;;;;;6280685;27;20524;-60
2022/12/02 05:33:33;;;;;;;2.40;2.00;;;18.40;40.20;;;;;;6284527;28;20506;-60
2022/12/02 05:36:34;;;;;;;3.38;2.47;;;18.30;40.10;;;;;;6284778;27;20040;-62
2022/12/02 05:39:36;;;;;;;2.78;2.38;;;18.40;40.10;;;;;;6283578;28;20154;-61
2022/12/02 05:42:39;;;;;;;3.30;2.60;;;18.20;40.10;;;;;;6284142;28;20147;-60
2022/12/02 05:45:40;;;;;;;2.90;2.50;;;17.90;39.80;;;;;;6283883;28;20163;-61
2022/12/02 05:48:43;;;;;;;2.65;2.28;;;18.40;40.20;;;;;;6284228;28;20426;-59
2022/12/02 05:51:47;;;;;;;3.67;2.85;;;18.40;40.10;;;;;;6281084;28;20125;-60
2022/12/02 05:54:57;;;;;;;2.97;2.47;;;18.20;40.00;;;;;;6264245;28;20568;-61
2022/12/02 05:58:01;;;;;;;3.85;3.10;;;18.20;40.00;;;;;;6252978;28;20055;-61
2022/12/02 06:01:17;;;;;;;3.90;3.03;;;18.60;40.10;;;;;;6265568;28;20353;-61
2022/12/02 06:04:21;;;;;;;3.95;2.30;;;18.20;39.90;;;;;;6267127;28;20638;-60
2022/12/02 06:07:23;;;;;;;3.33;2.25;;;18.30;39.90;;;;;;6295962;28;20068;-60
2022/12/02 06:10:28;;;;;;;3.08;2.65;;;18.60;40.10;;;;;;6287863;28;20430;-61
2022/12/02 06:13:36;;;;;;;3.30;2.65;;;18.30;40.00;;;;;;6260982;28;20039;-59
2022/12/02 06:16:39;;;;;;;3.05;2.70;;;18.20;39.90;;;;;;6269749;28;20112;-60
2022/12/02 06:19:44;;;;;;;3.55;2.75;;;18.40;40.10;;;;;;6294327;28;20028;-60
2022/12/02 06:22:45;;;;;;;3.13;2.60;;;18.30;40.10;;;;;;6275804;28;20928;-62
2022/12/02 06:25:51;;;;;;;3.22;2.53;;;18.30;40.10;;;;;;6294033;28;20528;-62
2022/12/02 06:28:58;;;;;;;2.80;2.22;;;18.40;40.10;;;;;;6279987;28;20044;-61
2022/12/02 06:32:00;;;;;;;3.15;2.40;;;18.60;40.20;;;;;;6289754;28;20045;-61
2022/12/02 06:35:03;;;;;;;;;;;18.30;40.20;;;;;;6296218;28;20039;-61
2022/12/02 06:38:24;;;;;;;3.03;2.72;;;18.60;40.30;;;;;;6279675;27;19995;-61
2022/12/02 06:41:28;;;;;;;3.40;2.70;;;18.40;40.20;;;;;;6276784;28;20039;-62
2022/12/02 06:47:50;;;;;;;2.30;2.10;;;18.40;40.00;;;;;;6293649;28;20071;-61
2022/12/02 06:50:53;;;;;;;3.45;2.65;;;18.10;39.90;;;;;;6273911;27;20047;-60
2022/12/02 06:53:56;;;;;;;3.65;2.83;;;18.40;40.10;;;;;;6291198;27;20158;-61
2022/12/02 06:57:00;;;;;;;4.03;3.40;;;18.20;39.90;;;;;;6295321;27;20035;-62
2022/12/02 07:00:04;;;;;;;4.57;3.35;;;18.30;39.90;;;;;;6262981;28;21801;-61
2022/12/02 07:03:15;;;;;;;3.78;2.97;;;18.30;39.80;;;;;;6282715;27;20147;-61
2022/12/02 07:06:19;;;;;;;3.40;2.95;;;18.10;39.20;;;;;;6276908;27;20132;-61
2022/12/02 07:09:31;;;;;;;3.15;2.83;;;18.30;39.60;;;;;;6278907;28;20035;-61
2022/12/02 07:12:35;;;;;;;;;;;18.20;39.30;;;;;;6261560;28;20128;-65
2022/12/02 07:15:37;;;;;;;3.08;2.63;;;19.00;40.10;;;;;;6275904;27;19927;-60
2022/12/02 07:18:39;;;;;;;3.75;2.70;;;18.40;39.30;;;;;;6276789;28;21063;-61
2022/12/02 07:21:40;;;;;;;2.92;2.40;;;18.60;39.10;;;;;;6273431;27;21390;-59
2022/12/02 07:24:47;;;;;;;3.15;2.58;;;18.70;39.00;;;;;;6275240;27;20043;-61
2022/12/02 07:27:51;;;;;;;2.83;2.40;;;18.60;38.70;;;;;;6259869;28;20046;-61
2022/12/02 07:30:58;;;;;;;3.13;2.83;;;18.50;38.30;;;;;;6275985;27;20043;-61
2022/12/02 07:34:00;;;;;;;3.08;2.67;;;18.50;38.00;;;;;;6246367;27;20094;-60
2022/12/02 07:37:02;;;;;;;3.45;2.67;;;18.90;38.00;;;;;;6258001;27;20064;-59
2022/12/02 07:40:05;;;;;;;3.00;2.70;;;19.10;38.10;;;;;;6241708;27;20071;-61
2022/12/02 07:43:09;;;;;;;3.28;2.88;;;19.30;37.80;;;;;;6254839;27;20035;-60
2022/12/02 07:46:11;;;;;;;3.17;2.58;;;19.10;37.80;;;;;;6234898;27;20050;-62
2022/12/02 07:49:14;;;;;;;2.92;2.63;;;19.30;38.00;;;;;;6244120;27;20039;-61
2022/12/02 07:52:16;;;;;;;3.10;2.80;;;19.30;38.10;;;;;;6227383;27;20043;-59
2022/12/02 07:55:18;;;;;;;2.63;2.42;;;19.20;37.80;;;;;;6212160;27;20138;-61
2022/12/02 07:58:27;;;;;;;3.00;2.40;;;19.40;37.90;;;;;;6176702;27;22073;-61
2022/12/02 08:01:50;;;;;;;3.05;2.75;;;18.80;37.50;;;;;;6133854;27;20039;-61
2022/12/02 08:04:52;;;;;;;4.65;2.70;;;19.00;37.90;;;;;;6116135;27;21504;-64
2022/12/02 08:07:55;;;;;;;4.35;2.65;;;19.00;37.80;;;;;;6147676;27;20035;-65
2022/12/02 08:10:57;;;;;;;3.03;2.58;;;19.40;38.10;;;;;;6144285;27;20036;-66
2022/12/02 08:14:01;;;;;;;2.80;2.38;;;19.60;38.10;;;;;;6107073;27;31482;-65
2022/12/02 08:17:03;;;;;;;2.88;2.58;;;19.10;37.70;;;;;;6125021;27;20101;-64
2022/12/02 08:20:10;;;;;;;2.53;2.20;;;19.50;38.00;;;;;;6157608;27;20079;-64
2022/12/02 08:23:11;;;;;;;2.88;2.60;;;19.40;37.80;;;;;;6137450;27;20076;-65
2022/12/02 08:26:12;;;;;;;3.00;2.70;;;19.60;53.80;;;;;;6145390;27;20886;-65
2022/12/02 08:29:14;;;;;;;3.10;2.53;;;19.30;38.20;;;;;;6137038;27;21866;-65
2022/12/02 08:32:16;;;;;;;;;;;19.70;38.00;;;;;;6118683;27;20043;-66
2022/12/02 08:35:17;;;;;;;;;;;19.40;38.20;;;;;;6134262;27;22327;-66
2022/12/02 08:38:20;;;;;;;2.40;2.20;;;19.80;38.40;;;;;;6144956;27;19933;-64
2022/12/02 08:41:21;;;;;;;2.78;2.45;;;19.40;38.00;;;;;;6123433;27;20031;-65
2022/12/02 08:44:22;;;;;;;;;;;19.80;37.80;;;;;;6118726;27;20044;-64
2022/12/02 08:47:25;;;;;;;2.70;2.25;;;20.20;38.60;;;;;;6150337;27;20058;-64
2022/12/02 08:50:26;;;;;;;2.50;2.30;;;19.40;37.60;;;;;;6091777;27;20075;-65
2022/12/02 08:53:27;;;;;;;;;;;19.50;37.70;;;;;;6118414;27;20052;-65
2022/12/02 08:56:29;;;;;;;2.60;2.20;;;20.00;38.20;;;;;;6140415;27;19927;-65
2022/12/02 08:59:32;;;;;;;3.13;2.83;;;19.90;37.90;;;;;;6115331;27;20043;-65
2022/12/02 09:02:35;;;;;;;2.85;2.53;;;20.10;36.10;;;;;;6133998;27;20535;-65
2022/12/02 09:05:39;;;;;;;3.20;2.60;;;20.20;38.10;;;;;;6151192;27;20054;-64
2022/12/02 09:08:40;;;;;;;2.78;2.47;;;20.00;37.80;;;;;;6131533;27;20044;-66
2022/12/02 09:11:42;;;;;;;3.13;2.83;;;20.10;38.00;;;;;;6143774;27;20989;-67
2022/12/02 09:14:43;;;;;;;;;;;20.10;38.00;;;;;;6114467;27;20047;-66
2022/12/02 09:17:46;;;;;;;3.42;2.30;;;20.30;38.80;;;;;;6140566;27;19927;-67
2022/12/02 09:20:47;;;;;;;2.65;2.35;;;19.70;37.40;;;;;;6132753;27;20043;-66
2022/12/02 09:23:49;;;;;;;2.88;2.40;;;20.20;37.80;;;;;;6131949;27;20035;-65
2022/12/02 09:26:52;;;;;;;3.10;2.58;;;20.40;37.60;;;;;;6100774;27;20214;-66
2022/12/02 09:29:53;;;;;;;;;;;20.20;37.80;;;;;;6148744;27;20207;-65
2022/12/02 09:32:56;;;;;;;3.00;2.70;;;20.40;37.90;;;;;;6116376;27;20696;-66
2022/12/02 09:35:57;;;;;;;2.95;2.42;;;20.50;38.00;;;;;;6141725;27;20035;-64
2022/12/02 09:38:59;;;;;;;3.13;2.83;;;20.40;36.70;;;;;;6137488;27;20039;-65
2022/12/02 09:42:00;;;;;;;;;;;20.60;38.10;;;;;;6140065;27;20129;-66
2022/12/02 09:45:02;;;;;;;3.47;2.45;;;20.40;38.30;;;;;;6144689;27;21202;-65
2022/12/02 09:48:04;;;;;;;;;;;20.60;38.10;;;;;;6149103;27;20047;-65
2022/12/02 09:51:06;;;;;;;4.03;2.75;;;20.30;37.90;;;;;;6116820;27;19927;-65
2022/12/02 09:54:10;;;;;;;2.70;2.40;;;20.10;37.80;;;;;;6156551;27;21418;-65
2022/12/02 09:57:14;;;;;;;2.38;2.17;;;20.50;38.00;;;;;;6140811;27;20112;-64
2022/12/02 10:00:19;;;;;;;2.97;2.67;;;20.50;38.10;;;;;;6093803;27;20151;-63
2022/12/02 10:03:25;;;;;;;2.97;2.47;;;20.70;37.40;;;;;;6096729;27;20084;-64
2022/12/02 10:06:28;;;;;;;3.28;2.70;;;20.70;37.00;;;;;;6146422;27;21291;-63
2022/12/02 10:09:31;;;;;;;2.60;2.40;;;20.80;37.20;;;;;;6119911;27;24779;-65
2022/12/02 10:12:32;;;;;;;3.17;2.83;;;20.70;37.00;;;;;;6106202;27;20052;-64
2022/12/02 10:15:34;;;;;;;;;;;20.70;37.30;;;;;;6070181;27;20087;-64
2022/12/02 10:18:36;;;;;;;2.75;2.47;;;20.60;38.00;;;;;;6141462;27;19927;-64
2022/12/02 10:21:38;;;;;;;2.70;2.30;;;20.90;37.50;;;;;;6097254;27;20035;-66
2022/12/02 10:24:39;;;;;;;2.72;2.25;;;20.80;37.50;;;;;;6138019;27;20047;-66
2022/12/02 10:27:41;;;;;;;2.92;2.60;;;20.80;37.50;;;;;;6152478;27;20044;-64
2022/12/02 10:30:48;;;;;;;2.45;2.25;;;20.50;37.60;;;;;;6121125;27;20044;-64
2022/12/02 10:33:52;;;;;;;3.25;2.95;;;20.90;37.60;;;;;;6134591;27;20110;-65
2022/12/02 10:36:55;;;;;;;2.88;2.63;;;20.60;37.50;;;;;;6154137;27;20163;-63
2022/12/02 10:40:08;;;;;;;2.90;2.08;;;20.90;37.60;;;;;;6141906;27;20043;-64
2022/12/02 10:43:10;;;;;;;3.00;2.70;;;20.60;37.60;;;;;;6080745;27;20042;-65
2022/12/02 10:46:13;;;;;;;2.72;2.40;;;20.50;37.70;;;;;;6157697;27;22565;-64
2022/12/02 10:49:26;;;;;;;2.97;2.40;;;20.70;37.80;;;;;;6122090;27;22025;-62
2022/12/02 10:52:33;;;;;;;4.05;2.65;;;21.10;37.50;;;;;;6075216;27;20145;-66
2022/12/02 10:55:35;;;;;;;2.97;2.50;;;20.70;38.00;;;;;;6142100;27;20547;-64
2022/12/02 10:58:36;;;;;;;;;;;20.60;37.90;;;;;;6148888;27;20051;-64
2022/12/02 11:01:39;;;;;;;2.95;2.65;;;21.00;38.70;;;;;;6080100;27;20047;-63
2022/12/02 11:04:43;;;;;;;2.70;2.45;;;20.70;38.20;;;;;;6107903;27;21570;-64
2022/12/02 11:07:55;;;;;;;3.25;2.90;;;20.90;38.50;;;;;;6107228;27;20058;-62
2022/12/02 11:11:11;;;;;;;2.97;2.67;;;21.00;38.40;;;;;;6107443;27;20169;-63
2022/12/02 11:14:53;;;;;;;2.92;2.63;;;20.50;38.30;;;;;;6146039;27;20044;-67
2022/12/02 11:17:56;;;;;;;2.83;2.38;;;20.80;38.30;;;;;;6133873;27;20035;-66
2022/12/02 11:21:35;;;;;;;2.63;2.22;;;20.80;38.50;;;;;;6159026;27;24115;-66
2022/12/02 11:24:39;;;;;;;2.92;2.53;;;21.10;38.50;;;;;;6153692;27;20246;-65
2022/12/02 11:28:12;;;;;;;3.17;2.50;;;20.30;38.50;;;;;;6158839;27;21201;-66
2022/12/02 11:31:19;;;;;;;3.08;2.72;;;20.70;38.80;;;;;;6114703;27;20039;-66
2022/12/02 11:34:25;;;;;;;3.60;2.88;;;20.50;38.30;;;;;;6148831;27;20058;-63
2022/12/02 11:37:43;;;;;;;2.90;2.60;;;21.00;39.30;;;;;;6127328;27;20804;-64
2022/12/02 11:41:00;;;;;;;3.08;2.58;;;20.80;39.20;;;;;;6142202;27;20306;-64
2022/12/02 11:44:24;;;;;;;3.28;2.80;;;20.50;38.90;;;;;;6167546;27;20043;-65
2022/12/02 11:47:29;;;;;;;3.95;3.10;;;20.90;39.20;;;;;;6183856;27;20054;-63
2022/12/02 11:50:38;;;;;;;3.05;2.47;;;21.00;39.00;;;;;;6183756;27;20069;-65
2022/12/02 11:53:50;;;;;;;3.15;2.78;;;20.90;39.10;;;;;;6174824;27;21108;-63
2022/12/02 11:56:53;;;;;;;3.40;2.53;;;21.00;39.00;;;;;;6199901;27;20048;-65
2022/12/02 11:59:54;;;;;;;3.60;2.88;;;20.80;38.80;;;;;;6207759;27;20170;-65
2022/12/02 12:03:06;;;;;;;2.60;2.30;;;20.80;38.80;;;;;;6191101;27;21833;-64
2022/12/02 12:06:11;;;;;;;2.97;2.65;;;21.10;38.90;;;;;;6122274;27;20031;-65
2022/12/02 12:09:17;;;;;;;3.50;2.78;;;21.10;39.00;;;;;;6206672;27;20154;-64
2022/12/02 12:12:19;;;;;;;2.78;2.33;;;21.10;39.00;;;;;;6213075;27;20035;-63
2022/12/02 12:15:48;;;;;;;2.63;2.30;;;21.10;38.80;;;;;;6218207;27;20042;-64
2022/12/02 12:18:50;;;;;;;3.10;2.38;;;21.30;39.10;;;;;;6165259;27;20053;-63
2022/12/02 12:21:54;;;;;;;3.30;2.80;;;21.20;38.90;;;;;;6159219;27;20047;-65
2022/12/02 12:25:22;;;;;;;3.38;2.65;;;21.20;38.80;;;;;;6217684;27;20162;-66
2022/12/02 12:28:27;;;;;;;2.55;2.22;;;21.20;38.90;;;;;;6176037;27;20168;-65
2022/12/02 12:31:28;;;;;;;2.55;2.35;;;21.30;38.90;;;;;;6162619;27;20043;-63
2022/12/02 12:34:38;;;;;;;3.25;2.60;;;21.30;38.40;;;;;;6207723;28;20940;-63
2022/12/02 12:37:39;;;;;;;3.15;2.55;;;21.30;38.80;;;;;;6155187;27;20050;-65
2022/12/02 12:40:41;;;;;;;2.58;2.35;;;21.20;38.70;;;;;;6185848;27;20035;-65
2022/12/02 12:43:43;;;;;;;3.00;2.70;;;21.30;39.00;;;;;;6156921;27;20040;-64
2022/12/02 12:46:44;;;;;;;3.05;2.70;;;21.10;38.80;;;;;;6145632;27;20054;-64
2022/12/02 12:49:47;;;;;;;2.97;2.47;;;21.30;39.00;;;;;;6204153;27;20051;-64
2022/12/02 12:52:49;;;;;;;2.55;2.10;;;21.40;38.60;;;;;;6193287;27;21198;-64
2022/12/02 12:55:50;;;;;;;2.65;2.40;;;21.40;39.00;;;;;;6123425;27;20044;-64
2022/12/02 12:58:58;;;;;;;2.90;2.60;;;21.30;38.90;;;;;;6134579;27;20082;-64
2022/12/02 13:01:59;;;;;;;3.05;2.40;;;20.70;38.80;;;;;;6109073;27;20038;-66
2022/12/02 13:05:01;;;;;;;2.63;2.10;;;21.30;38.80;;;;;;6131786;27;22355;-66
2022/12/02 13:08:03;;;;;;;3.13;2.40;;;21.20;38.80;;;;;;6154821;27;20047;-65
2022/12/02 13:11:11;;;;;;;2.72;2.20;;;21.20;38.40;;;;;;6151918;27;20148;-65
2022/12/02 13:14:12;;;;;;;;;;;21.40;38.90;;;;;;6105683;27;20038;-67
2022/12/02 13:17:14;;;;;;;3.25;2.70;;;21.00;38.90;;;;;;6111841;27;19928;-66
2022/12/02 13:20:17;;;;;;;2.97;2.35;;;21.30;39.10;;;;;;6091129;27;20148;-64
2022/12/02 13:23:20;;;;;;;3.38;2.67;;;21.10;38.90;;;;;;6115255;27;20185;-64
2022/12/02 13:26:21;;;;;;;2.67;2.30;;;20.80;55.70;;;;;;6131867;27;20039;-64
2022/12/02 13:29:25;;;;;;;2.88;2.25;;;20.90;39.00;;;;;;6131999;27;20143;-64
2022/12/02 13:32:26;;;;;;;2.65;2.15;;;21.10;39.40;;;;;;6115768;27;21627;-64
2022/12/02 13:35:28;;;;;;;;;;;21.00;39.20;;;;;;6129059;27;20639;-65
2022/12/02 13:38:29;;;;;;;2.30;2.10;;;21.10;39.80;;;;;;6156067;27;20004;-63
2022/12/02 13:41:31;;;;;;;3.13;2.40;;;20.90;39.20;;;;;;6134299;27;20035;-62
2022/12/02 13:44:36;;;;;;;2.75;2.47;;;20.70;39.20;;;;;;6123929;27;20150;-62
2022/12/02 13:47:38;;;;;;;2.85;2.22;;;21.10;39.10;;;;;;6114834;27;20051;-64
2022/12/02 13:50:40;;;;;;;2.20;2.00;;;20.70;39.40;;;;;;6108945;27;20688;-63
2022/12/02 13:53:42;;;;;;;;;;;20.70;39.00;;;;;;6073077;27;20046;-62
2022/12/02 13:56:44;;;;;;;2.45;2.00;;;21.30;39.70;;;;;;6122028;27;19934;-64
2022/12/02 13:59:46;;;;;;;;;;;21.20;39.80;;;;;;6087721;27;20725;-64
2022/12/02 14:02:47;;;;;;;;;;;21.20;40.10;;;;;;6096188;27;19934;-65
2022/12/02 14:05:49;;;;;;;2.75;2.30;;;21.10;38.60;;;;;;6096955;27;19931;-62
2022/12/02 14:08:50;;;;;;;4.10;2.22;;;20.90;39.80;;;;;;6131010;27;20155;-63
2022/12/02 14:11:52;;;;;;;2.80;2.50;;;20.90;39.70;;;;;;6117915;27;20075;-62
2022/12/02 14:14:54;;;;;;;;;;;20.80;40.10;;;;;;6125898;27;20584;-63
2022/12/02 14:17:56;;;;;;;3.00;2.47;;;20.90;40.90;;;;;;6123523;27;20067;-63
2022/12/02 14:20:57;;;;;;;;;;;20.40;40.00;;;;;;6128015;27;20039;-62
2022/12/02 14:23:59;;;;;;;3.65;2.00;;;20.80;40.50;;;;;;6156576;27;19927;-63
2022/12/02 14:27:00;;;;;;;2.55;2.10;;;21.00;40.40;;;;;;6144333;27;20040;-62
2022/12/02 14:30:02;;;;;;;;;;;20.70;40.00;;;;;;6153123;27;20046;-62
2022/12/02 14:33:04;;;;;;;3.40;2.33;;;21.00;40.40;;;;;;6093792;27;19927;-63
2022/12/02 14:36:06;;;;;;;2.88;2.03;;;20.80;40.30;;;;;;6139832;27;20105;-62
2022/12/02 14:39:07;;;;;;;3.08;2.63;;;21.00;40.40;;;;;;6136120;27;20047;-63
2022/12/02 14:42:09;;;;;;;2.42;2.22;;;20.60;40.00;;;;;;6098434;27;20055;-63
2022/12/02 14:45:11;;;;;;;;;;;20.90;40.50;;;;;;6136718;27;21992;-63
2022/12/02 14:48:13;;;;;;;;;;;21.10;40.70;;;;;;6136270;27;19927;-65
2022/12/02 14:51:14;;;;;;;2.70;2.13;;;21.00;40.70;;;;;;6106938;27;21415;-63
2022/12/02 14:54:15;;;;;;;3.13;2.38;;;20.80;40.50;;;;;;6100616;27;21538;-63
2022/12/02 14:57:18;;;;;;;3.03;2.45;;;20.70;40.40;;;;;;6106808;27;20042;-63
2022/12/02 15:00:20;;;;;;;2.60;2.10;;;20.60;40.30;;;;;;6125561;27;20031;-63
2022/12/02 15:03:22;;;;;;;3.53;2.92;;;20.70;40.60;;;;;;6125860;27;20982;-63
2022/12/02 15:06:24;;;;;;;2.90;2.50;;;20.80;40.60;;;;;;6117519;27;20443;-62
2022/12/02 15:09:29;;;;;;;3.08;2.45;;;20.70;40.60;;;;;;6107822;27;20046;-63
2022/12/02 15:12:35;;;;;;;2.40;2.20;;;20.40;40.40;;;;;;6047752;27;20051;-63
2022/12/02 15:15:37;;;;;;;2.92;2.47;;;20.30;40.80;;;;;;6094077;27;20042;-63
2022/12/02 15:18:41;;;;;;;2.42;2.13;;;20.30;40.40;;;;;;6078557;27;20043;-64
2022/12/02 15:21:44;;;;;;;2.78;2.42;;;20.70;41.00;;;;;;6086580;27;20046;-63
2022/12/02 15:24:46;;;;;;;2.63;2.40;;;20.40;38.60;;;;;;6129622;27;21444;-62
2022/12/02 15:27:48;;;;;;;2.55;2.35;;;20.80;41.10;;;;;;6086849;27;21051;-63
2022/12/02 15:30:50;;;;;;;2.40;2.13;;;20.70;41.10;;;;;;6076424;27;21107;-63
2022/12/02 15:33:52;;;;;;;2.90;2.60;;;20.20;40.60;;;;;;6130670;27;20119;-64
2022/12/02 15:36:53;;;;;;;;;;;20.50;40.70;;;;;;6107040;27;20035;-64
2022/12/02 15:39:55;;;;;;;2.53;2.33;;;21.10;41.70;;;;;;6109214;27;19931;-64
2022/12/02 15:42:57;;;;;;;3.03;2.65;;;20.60;40.30;;;;;;6078365;27;20039;-66
2022/12/02 15:45:59;;;;;;;;;;;20.60;40.10;;;;;;6098621;27;20045;-63
2022/12/02 15:49:01;;;;;;;2.42;1.88;;;20.70;40.40;;;;;;6103262;27;19972;-62
2022/12/02 15:52:03;;;;;;;2.75;2.20;;;20.60;40.60;;;;;;6103323;27;20047;-63
2022/12/02 15:55:05;;;;;;;4.05;2.63;;;20.40;40.50;;;;;;6101197;27;20116;-64
2022/12/02 15:58:07;;;;;;;2.50;2.30;;;20.60;40.90;;;;;;6058628;27;23015;-64
2022/12/02 16:01:09;;;;;;;;;;;20.60;41.00;;;;;;6079670;27;20043;-64
2022/12/02 16:04:10;;;;;;;3.15;2.85;;;20.70;41.30;;;;;;6092291;27;19928;-62
2022/12/02 16:07:12;;;;;;;3.20;2.40;;;20.20;40.90;;;;;;6104127;27;21520;-62
2022/12/02 16:10:13;;;;;;;3.00;2.40;;;20.40;41.00;;;;;;6150287;27;20148;-63
2022/12/02 16:13:16;;;;;;;3.20;2.60;;;20.20;40.00;;;;;;6128119;27;20036;-64
2022/12/02 16:16:19;;;;;;;3.17;2.67;;;20.20;41.00;;;;;;6111363;27;20043;-61